Главная страница
METAR-TAF:

METAR-TAF

Аэропорты :

Нефтяная платформа

F16-a, Нидерланды

широта: 54-07-00N, долгота: 4-00-44E, высота над уровнем моря: 28 м

Текущие метеонаблюдения

Эта сводка был подготовлена 29 минут назад, в 07:25 UTC
Ветер 16 Узел от южный-юго-западный, изменяющийся между восточный и западный-юго-западный
Температура 9°C
Влажность 81%
Давление 1010 hPa
Видимость 10 км и более
Рассеянная облачность на высоте 1500 фута
Сплошная облачность на высоте 1900 фута

METAR: EHFZ 170725Z AUTO 20016KT 090V250 9999 BKN015 OVC019 09/06 Q1010 W///H///

Время: 08:54 (07:54 UTC)


TAF: отсутствует

Метеонаблюдения и прогнозы для более 4000 аэропортов (сводки METAR и TAF).

Имеющиеся станции представлены на карте желтыми и красными точками.

Чтобы увидеть название станции, наведите на нее мышь.

Затем щелкните, чтобы увидеть метеонаблюдения и метеопрогнозы.

Управление картой: чтобы увеличить масштаб, щелкните зеленые кнопки с черным крестиком; чтобы уменьшить масштаб, щелкните зеленую кнопку с тире; для просмотра соседних карт щелкайте зеленые стрелки.


METAR-TAF: